1889 Hurricane NOT_NAMED (1889258N12296)


IBTrACS version v04r00. Visit IBTrACS website for data access.
Please direct all questions to the IBTrACS Q and A forum

Storm track - Intensity - Wind Radii - Intensity Data - Source Data - All data

Summary Information

Storm ID 1889258N12296
Start Sep 14 12Z
Landfall Sep 19 03Z
Max Intensity 100 kt (Sep 18 18Z)
End Sep 21 12Z
ATCF IDs
Track status Best track data.
Spur track This storm is a spur track associated with the main storm: 1889255N16301

Storm track plot

Map of storm track

Intensity plots

Map of storm track

Radial wind information

No radial wind information for this storm


Position and Intensity Table

BASIN ISO_TIME_________ NATURE LAT LON MLC WIND
degrees north degrees east kts
NA 1889-09-14 12:00:00 TS 12.00 -64.40 35
NA 15:00:00 TS 12.20 -65.00 35
NA 18:00:00 TS 12.40 -65.60 35
NA 21:00:00 TS 12.60 -66.20 35
NA 1889-09-15 00:00:00 TS 12.80 -66.80 35
NA 03:00:00 TS 13.00 -67.40 35
NA 06:00:00 TS 13.20 -68.00 35
NA 09:00:00 TS 13.40 -68.60 37
NA 12:00:00 TS 13.60 -69.20 40
NA 15:00:00 TS 13.80 -69.80 40
NA 18:00:00 TS 14.00 -70.40 40
NA 21:00:00 TS 14.20 -71.00 40
NA 1889-09-16 00:00:00 TS 14.40 -71.60 40
NA 03:00:00 TS 14.60 -72.20 40
NA 06:00:00 TS 14.80 -72.80 40
NA 09:00:00 TS 15.00 -73.40 42
NA 12:00:00 TS 15.20 -74.00 45
NA 15:00:00 TS 15.40 -74.60 45
NA 18:00:00 TS 15.60 -75.20 45
NA 21:00:00 TS 15.79 -75.80 45
NA 1889-09-17 00:00:00 TS 16.00 -76.40 45
NA 03:00:00 TS 16.25 -76.99 47
NA 06:00:00 TS 16.50 -77.60 50
NA 09:00:00 TS 16.71 -78.29 52
NA 12:00:00 TS 16.90 -79.00 55
NA 15:00:00 TS 17.09 -79.70 57
NA 18:00:00 TS 17.30 -80.40 60
NA 21:00:00 TS 17.54 -81.10 60
NA 1889-09-18 00:00:00 TS 17.80 -81.80 60
NA 03:00:00 TS 18.05 -82.50 62
NA 06:00:00 TS 18.30 -83.20 65
NA 09:00:00 TS 18.56 -83.91 70
NA 12:00:00 TS 18.80 -84.60 75
NA 15:00:00 TS 19.01 -85.26 87
NA 18:00:00 NR 19.20 -85.90 100
NA 21:00:00 NR 19.39 -86.56 100
NA 1889-09-19 00:00:00 NR 19.50 -87.20 100
NA 03:00:00 NR 19.48 -87.82 100
NA 06:00:00 NR 19.40 -88.40 100
NA 09:00:00 NR 19.36 -88.91 92
NA 12:00:00 TS 19.30 -89.40 85
NA 15:00:00 TS 19.21 -89.92 75
NA 18:00:00 TS 19.10 -90.40 65
NA 21:00:00 TS 18.99 -90.83 67
NA 1889-09-20 00:00:00 TS 18.90 -91.20 70
NA 03:00:00 TS 18.82 -91.52 77
NA 06:00:00 TS 18.80 -91.80 85
NA 09:00:00 TS 18.85 -92.10 85
NA 12:00:00 TS 19.00 -92.40 85
NA 15:00:00 TS 19.20 -92.67 85
NA 18:00:00 TS 19.50 -93.00 85
NA 21:00:00 TS 19.90 -93.49 85
NA 1889-09-21 00:00:00 TS 20.40 -94.00 85
NA 03:00:00 TS 20.98 -94.40 85
NA 06:00:00 TS 21.60 -94.70 85
NA 09:00:00 TS 22.21 -94.95 82
NA 12:00:00 TS 22.80 -95.00 80

Source Information

Agency Information
USA
TOKYO
CMA
HKO
NEWDELHI
REUNION
BOM
NADI
WELLINGTON
DS824
TD9636
TD9635
NEUMANN
MLC

All available IBTrACS Data

SEASON BASIN SUBBASIN ISO_TIME_________ NATURE LAT LON DIST2LAND LANDFALL IFLAG USA SSHS MLC LAT MLC LON MLC CLASS MLC WIND STORM SPEED STORM DIR
Year degrees north degrees east km km 1 degrees north degrees east kts kts degrees
1889 NA CS 1889-09-14 12:00:00 TS 12.00 -64.40 158 158 _____________O -1 12.00 -64.40 TS 35 12 289
1889 NA CS 15:00:00 TS 12.20 -65.00 199 199 _____________P -1 12.20 -65.00 TS 35 12 289
1889 NA CS 18:00:00 TS 12.40 -65.60 206 204 _____________O -1 12.40 -65.60 TS 35 12 289
1889 NA CS 21:00:00 TS 12.60 -66.20 223 223 _____________P -1 12.60 -66.20 TS 35 12 289
1889 NA CS 1889-09-15 00:00:00 TS 12.80 -66.80 246 229 _____________O -1 12.80 -66.80 TS 35 12 289
1889 NA CS 03:00:00 TS 13.00 -67.40 229 219 _____________P -1 13.00 -67.40 TS 35 12 289
1889 NA CS 06:00:00 TS 13.20 -68.00 219 202 _____________O -1 13.20 -68.00 TS 35 12 289
1889 NA CS 09:00:00 TS 13.40 -68.60 202 184 _____________P -1 13.40 -68.60 TS 37 12 289
1889 NA CS 12:00:00 TS 13.60 -69.20 184 180 _____________O -1 13.60 -69.20 TS 40 12 289
1889 NA CS 15:00:00 TS 13.80 -69.80 190 190 _____________P -1 13.80 -69.80 TS 40 12 289
1889 NA CS 18:00:00 TS 14.00 -70.40 213 204 _____________O -1 14.00 -70.40 TS 40 12 289
1889 NA CS 21:00:00 TS 14.20 -71.00 208 206 _____________P -1 14.20 -71.00 TS 40 12 289
1889 NA CS 1889-09-16 00:00:00 TS 14.40 -71.60 223 223 _____________O -1 14.40 -71.60 TS 40 12 289
1889 NA CS 03:00:00 TS 14.60 -72.20 252 252 _____________P -1 14.60 -72.20 TS 40 12 289
1889 NA CS 06:00:00 TS 14.80 -72.80 292 292 _____________O -1 14.80 -72.80 TS 40 12 289
1889 NA CS 09:00:00 TS 15.00 -73.40 338 313 _____________P -1 15.00 -73.40 TS 42 12 289
1889 NA CS 12:00:00 TS 15.20 -74.00 313 297 _____________O -1 15.20 -74.00 TS 45 12 289
1889 NA CS 15:00:00 TS 15.40 -74.60 300 278 _____________P -1 15.40 -74.60 TS 45 12 289
1889 NA CS 18:00:00 TS 15.60 -75.20 278 238 _____________O -1 15.60 -75.20 TS 45 12 289
1889 NA CS 21:00:00 TS 15.79 -75.80 238 208 _____________P -1 15.79 -75.80 TS 45 12 289
1889 NA CS 1889-09-17 00:00:00 TS 16.00 -76.40 208 169 _____________O -1 16.00 -76.40 TS 45 12 292
1889 NA CS 03:00:00 TS 16.25 -76.99 169 138 _____________P -1 16.25 -76.99 TS 47 13 293
1889 NA CS 06:00:00 TS 16.50 -77.60 140 138 _____________O -1 16.50 -77.60 TS 50 13 290
1889 NA CS 09:00:00 TS 16.71 -78.29 148 143 _____________P -1 16.71 -78.29 TS 52 14 287
1889 NA CS 12:00:00 TS 16.90 -79.00 158 158 _____________O -1 16.90 -79.00 TS 55 14 286
1889 NA CS 15:00:00 TS 17.09 -79.70 184 184 _____________P -1 17.09 -79.70 TS 57 14 287
1889 NA CS 18:00:00 TS 17.30 -80.40 234 234 _____________O -1 17.30 -80.40 TS 60 14 289
1889 NA CS 21:00:00 TS 17.54 -81.10 296 293 _____________P -1 17.54 -81.10 TS 60 14 291
1889 NA CS 1889-09-18 00:00:00 TS 17.80 -81.80 327 311 _____________O -1 17.80 -81.80 TS 60 14 291
1889 NA CS 03:00:00 TS 18.05 -82.50 311 302 _____________P -1 18.05 -82.50 TS 62 14 291
1889 NA CS 06:00:00 TS 18.30 -83.20 303 299 _____________O -1 18.30 -83.20 HU 65 14 291
1889 NA CS 09:00:00 TS 18.56 -83.91 313 304 _____________P -1 18.56 -83.91 HU 70 14 291
1889 NA CS 12:00:00 TS 18.80 -84.60 304 237 _____________O -1 18.80 -84.60 HU 75 14 290
1889 NA CS 15:00:00 TS 19.01 -85.26 227 160 _____________P -1 19.01 -85.26 HU 87 13 288
1889 NA CS 18:00:00 NR 19.20 -85.90 160 95 _____________O -1 19.20 -85.90 MH 100 13 287
1889 NA CS 21:00:00 NR 19.39 -86.56 84 20 _____________P -1 19.39 -86.56 MH 100 13 284
1889 NA CS 1889-09-19 00:00:00 NR 19.50 -87.20 20 0 _____________O -1 19.50 -87.20 MH 100 12 274
1889 NA NA 03:00:00 NR 19.48 -87.82 0 0 _____________P -1 19.48 -87.82 MH 100 11 265
1889 NA NA 06:00:00 NR 19.40 -88.40 0 0 _____________O -1 19.40 -88.40 MH 100 10 263
1889 NA NA 09:00:00 NR 19.36 -88.91 0 0 _____________P -1 19.36 -88.91 MH 92 9 264
1889 NA NA 12:00:00 TS 19.30 -89.40 0 0 _____________O -1 19.30 -89.40 HU 85 10 261
1889 NA NA 15:00:00 TS 19.21 -89.92 0 0 _____________P -1 19.21 -89.92 HU 75 10 258
1889 NA NA 18:00:00 TS 19.10 -90.40 0 0 _____________O -1 19.10 -90.40 HU 65 9 256
1889 NA NA 21:00:00 TS 18.99 -90.83 0 0 _____________P -1 18.99 -90.83 HU 67 8 255
1889 NA NA 1889-09-20 00:00:00 TS 18.90 -91.20 0 0 _____________O -1 18.90 -91.20 HU 70 7 255
1889 NA GM 03:00:00 TS 18.82 -91.52 0 0 _____________P -1 18.82 -91.52 HU 77 6 260
1889 NA GM 06:00:00 TS 18.80 -91.80 24 22 _____________O -1 18.80 -91.80 HU 85 6 274
1889 NA GM 09:00:00 TS 18.85 -92.10 33 33 _____________P -1 18.85 -92.10 HU 85 6 289
1889 NA GM 12:00:00 TS 19.00 -92.40 44 44 _____________O -1 19.00 -92.40 HU 85 6 302
1889 NA GM 15:00:00 TS 19.20 -92.67 67 67 _____________P -1 19.20 -92.67 HU 85 8 311
1889 NA GM 18:00:00 TS 19.50 -93.00 105 105 _____________O -1 19.50 -93.00 HU 85 10 312
1889 NA GM 21:00:00 TS 19.90 -93.49 167 167 _____________P -1 19.90 -93.49 HU 85 13 314
1889 NA GM 1889-09-21 00:00:00 TS 20.40 -94.00 226 226 _____________O -1 20.40 -94.00 HU 85 14 322
1889 NA GM 03:00:00 TS 20.98 -94.40 241 239 _____________P -1 20.98 -94.40 HU 85 14 331
1889 NA GM 06:00:00 TS 21.60 -94.70 258 250 _____________O -1 21.60 -94.70 HU 85 13 337
1889 NA GM 09:00:00 TS 22.21 -94.95 246 246 _____________P -1 22.21 -94.88 HU 82 12 347
1889 NA GM 12:00:00 TS 22.80 -95.00 272 _____________O -1 22.80 -95.00 HU 80 12 357